Time;durP1;ratioP1;P1;durP2;ratioP2;P2;SDS_P1;SDS_P2;PMS_P1;PMS_P2;Temp;Humidity;BMP_temperature;BMP_pressure;BME280_temperature;BME280_humidity;BME280_pressure;Samples;Min_cycle;Max_cycle;Signal;HPM_P1;HPM_P2
2022/08/23 00:01:41;;;;;;;4.20;2.85;;;17.80;63.30;;;;;;5032764;28;20017;-74
2022/08/23 00:04:13;;;;;;;4.97;2.72;;;17.80;63.30;;;;;;5032615;28;20176;-75
2022/08/23 00:06:40;;;;;;;4.57;2.55;;;17.80;63.30;;;;;;5032576;28;20175;-75
2022/08/23 00:09:06;;;;;;;5.30;2.85;;;17.80;63.00;;;;;;5033864;28;20021;-75
2022/08/23 00:11:36;;;;;;;5.88;3.03;;;17.80;62.80;;;;;;5036172;28;20389;-74
2022/08/23 00:14:14;;;;;;;5.60;3.13;;;17.80;63.40;;;;;;5036275;28;20021;-74
2022/08/23 00:16:41;;;;;;;6.80;3.10;;;17.70;62.10;;;;;;5036377;28;20021;-74
2022/08/23 00:19:10;;;;;;;10.82;3.20;;;17.70;62.40;;;;;;5036327;28;20061;-75
2022/08/23 00:21:37;;;;;;;7.32;3.13;;;17.60;62.70;;;;;;5036221;28;20100;-75
2022/08/23 00:24:05;;;;;;;4.88;2.72;;;17.50;63.20;;;;;;5036158;28;20128;-74
2022/08/23 00:27:03;;;;;;;6.03;2.83;;;17.40;63.60;;;;;;5036256;28;20466;-75
2022/08/23 00:29:38;;;;;;;4.63;2.78;;;17.40;63.80;;;;;;5034881;28;20029;-75
2022/08/23 00:32:07;;;;;;;5.13;3.10;;;17.30;64.10;;;;;;5036150;28;20022;-74
2022/08/23 00:34:34;;;;;;;7.60;2.97;;;17.20;64.90;;;;;;5035944;28;20075;-75
2022/08/23 00:37:00;;;;;;;4.68;3.00;;;17.20;65.10;;;;;;5035985;28;20025;-75
2022/08/23 00:39:26;;;;;;;8.80;3.05;;;17.10;65.20;;;;;;5035751;28;20038;-75
2022/08/23 00:41:56;;;;;;;4.57;3.10;;;17.00;65.10;;;;;;5036047;28;20022;-74
2022/08/23 00:50:31;;;;;;;5.35;2.70;;;17.00;64.80;;;;;;5036174;28;20063;-74
2022/08/23 00:53:23;;;;;;;7.25;3.13;;;17.00;65.10;;;;;;5035791;28;20022;-74
2022/08/23 00:55:53;;;;;;;7.15;3.00;;;16.90;65.60;;;;;;5035640;28;20044;-74
2022/08/23 00:58:20;;;;;;;6.63;2.90;;;16.90;65.80;;;;;;5035486;28;20034;-74
2022/08/23 01:00:48;;;;;;;7.95;3.00;;;16.80;65.90;;;;;;5035349;28;20045;-75
2022/08/23 01:03:15;;;;;;;6.13;3.38;;;16.70;66.20;;;;;;5035522;28;20053;-74
2022/08/23 01:05:57;;;;;;;5.18;3.00;;;16.60;67.10;;;;;;5035232;28;20068;-75
2022/08/23 01:08:26;;;;;;;7.78;3.20;;;16.60;67.50;;;;;;5035482;28;20028;-75
2022/08/23 01:11:05;;;;;;;8.35;2.70;;;16.50;67.60;;;;;;5035316;28;20017;-75
2022/08/23 01:13:59;;;;;;;5.75;3.20;;;16.50;67.70;;;;;;5035093;28;20048;-75
2022/08/23 01:16:32;;;;;;;5.80;3.03;;;16.40;67.90;;;;;;5035459;28;20072;-74
2022/08/23 01:19:00;;;;;;;9.75;3.47;;;16.30;68.60;;;;;;5035149;28;20037;-75
2022/08/23 01:21:32;;;;;;;6.18;3.10;;;16.30;68.70;;;;;;5033968;28;20045;-75
2022/08/23 01:24:02;;;;;;;5.82;3.45;;;16.20;68.70;;;;;;5035221;28;20026;-75
2022/08/23 01:26:30;;;;;;;4.47;3.00;;;16.10;69.10;;;;;;5035150;28;20022;-75
2022/08/23 01:28:56;;;;;;;4.65;3.30;;;15.90;69.30;;;;;;5035054;28;20021;-75
2022/08/23 01:31:23;;;;;;;9.07;3.25;;;15.90;69.20;;;;;;5042662;28;20367;-76
2022/08/23 01:34:23;;;;;;;5.72;3.08;;;15.90;69.30;;;;;;5035897;28;20030;-75
2022/08/23 01:36:49;;;;;;;5.78;2.85;;;15.90;69.50;;;;;;5024775;28;20047;-76
2022/08/23 01:39:14;;;;;;;6.40;3.22;;;15.90;70.10;;;;;;5034919;28;20037;-75
2022/08/23 01:41:40;;;;;;;6.47;3.30;;;15.90;69.70;;;;;;5034820;28;20049;-76
2022/08/23 01:44:06;;;;;;;6.30;2.90;;;15.80;69.90;;;;;;5033425;28;20040;-75
2022/08/23 01:46:31;;;;;;;7.82;3.28;;;15.90;70.10;;;;;;5034719;28;20028;-76
2022/08/23 01:48:57;;;;;;;3.95;3.03;;;15.90;69.90;;;;;;5034561;28;20030;-76
2022/08/23 01:51:23;;;;;;;6.43;2.97;;;15.90;69.80;;;;;;5034547;28;20063;-76
2022/08/23 01:53:49;;;;;;;5.28;3.35;;;15.90;69.70;;;;;;5034525;28;20030;-75
2022/08/23 01:56:18;;;;;;;5.55;3.00;;;16.00;69.60;;;;;;5034467;28;20492;-75
2022/08/23 01:58:44;;;;;;;6.38;3.35;;;15.90;69.50;;;;;;5034299;28;20037;-76
2022/08/23 02:01:10;;;;;;;4.35;2.63;;;15.90;69.30;;;;;;5034462;28;20116;-75
2022/08/23 02:03:36;;;;;;;6.07;3.25;;;15.90;69.40;;;;;;5034424;28;20053;-76
2022/08/23 02:06:03;;;;;;;6.65;3.05;;;15.90;69.30;;;;;;5034303;28;20491;-77
2022/08/23 02:11:17;;;;;;;5.60;2.75;;;15.90;68.90;;;;;;5034206;28;20436;-76
2022/08/23 02:13:44;;;;;;;7.70;3.10;;;15.90;69.00;;;;;;5034186;28;20492;-76
2022/08/23 02:16:10;;;;;;;5.68;3.00;;;15.90;69.00;;;;;;5034157;28;20037;-76
2022/08/23 02:18:37;;;;;;;5.55;3.22;;;15.80;69.10;;;;;;5034064;28;20041;-75
2022/08/23 02:21:03;;;;;;;7.50;2.95;;;15.80;69.30;;;;;;5033997;28;20024;-76
2022/08/23 02:23:28;;;;;;;4.00;2.70;;;15.70;69.50;;;;;;5034039;28;20037;-75
2022/08/23 02:25:54;;;;;;;6.63;3.00;;;15.60;69.50;;;;;;5033885;28;20063;-75
2022/08/23 02:28:22;;;;;;;3.75;2.63;;;15.50;69.40;;;;;;5034031;28;20061;-75
2022/08/23 02:30:48;;;;;;;7.28;2.80;;;15.50;68.60;;;;;;5032593;28;20025;-75
2022/08/23 02:33:13;;;;;;;5.57;2.90;;;15.50;69.00;;;;;;5033418;28;20087;-75
2022/08/23 02:35:40;;;;;;;4.97;2.63;;;15.40;69.80;;;;;;5033863;28;20029;-74
2022/08/23 02:38:08;;;;;;;4.90;2.63;;;15.40;69.70;;;;;;5033611;28;20026;-76
2022/08/23 02:40:34;;;;;;;4.40;2.63;;;15.40;69.30;;;;;;5033706;28;20089;-75
2022/08/23 02:43:01;;;;;;;7.10;3.10;;;15.40;69.30;;;;;;5033651;28;20138;-75
2022/08/23 02:45:27;;;;;;;3.40;2.33;;;15.50;69.00;;;;;;5033786;28;20029;-75
2022/08/23 02:47:54;;;;;;;4.45;2.63;;;15.60;68.90;;;;;;5033615;28;20028;-75
2022/08/23 02:50:20;;;;;;;3.85;2.13;;;15.70;68.60;;;;;;5033481;28;20104;-75
2022/08/23 02:52:46;;;;;;;3.28;1.90;;;15.70;68.20;;;;;;5033524;28;20034;-75
2022/08/23 02:55:11;;;;;;;3.80;2.47;;;15.70;68.40;;;;;;5033559;28;20029;-75
2022/08/23 02:57:38;;;;;;;3.45;2.28;;;15.80;68.40;;;;;;5033374;28;20025;-75
2022/08/23 03:00:06;;;;;;;4.50;2.47;;;15.80;68.10;;;;;;5033293;28;20401;-74
2022/08/23 03:02:32;;;;;;;6.65;2.50;;;15.90;67.80;;;;;;5033426;28;20056;-75
2022/08/23 03:04:57;;;;;;;3.88;2.40;;;15.90;67.60;;;;;;5033445;28;20038;-76
2022/08/23 03:07:23;;;;;;;7.80;2.50;;;15.70;67.60;;;;;;5033385;28;20052;-77
2022/08/23 03:09:49;;;;;;;7.03;2.40;;;15.70;68.10;;;;;;5033145;28;20100;-76
2022/08/23 03:12:14;;;;;;;3.55;2.30;;;15.60;68.60;;;;;;5033296;28;20021;-76
2022/08/23 03:14:40;;;;;;;8.55;2.67;;;15.50;69.10;;;;;;5033271;28;20442;-76
2022/08/23 03:17:06;;;;;;;5.40;2.75;;;15.50;69.40;;;;;;5033118;28;20036;-76
2022/08/23 03:19:32;;;;;;;5.90;2.63;;;15.40;69.40;;;;;;5033143;28;20029;-76
2022/08/23 03:21:57;;;;;;;5.35;2.60;;;15.30;69.80;;;;;;5033134;28;20033;-76
2022/08/23 03:24:23;;;;;;;6.13;3.20;;;15.30;70.20;;;;;;5033306;28;20434;-75
2022/08/23 03:26:49;;;;;;;7.20;3.05;;;15.20;70.10;;;;;;5033075;28;20500;-74
2022/08/23 03:29:14;;;;;;;4.97;2.92;;;15.20;70.10;;;;;;5033168;28;20024;-77
2022/08/23 03:31:40;;;;;;;7.30;2.72;;;15.20;70.10;;;;;;5032850;28;20033;-74
2022/08/23 03:34:06;;;;;;;6.57;3.00;;;15.20;70.10;;;;;;5032937;28;20049;-74
2022/08/23 03:36:32;;;;;;;8.27;3.03;;;15.10;70.30;;;;;;5032966;28;20127;-74
2022/08/23 03:38:58;;;;;;;6.65;2.47;;;15.10;70.20;;;;;;5032863;28;20060;-74
2022/08/23 03:41:24;;;;;;;5.68;2.90;;;15.10;70.20;;;;;;5032889;28;20021;-74
2022/08/23 03:43:51;;;;;;;5.82;2.63;;;15.10;70.20;;;;;;5033621;28;20025;-74
2022/08/23 03:46:23;;;;;;;7.25;2.45;;;15.00;70.50;;;;;;5036684;28;20032;-75
2022/08/23 03:48:55;;;;;;;5.57;2.88;;;15.00;70.60;;;;;;5036965;28;20496;-75
2022/08/23 03:51:22;;;;;;;5.05;2.92;;;14.90;71.10;;;;;;5036751;28;20083;-75
2022/08/23 03:53:48;;;;;;;6.72;2.70;;;14.80;71.20;;;;;;5035551;28;20029;-74
2022/08/23 03:56:34;;;;;;;4.68;2.97;;;14.80;71.60;;;;;;5036759;28;20079;-74
2022/08/23 03:59:00;;;;;;;;;;;14.70;71.60;;;;;;5036982;28;20466;-74
2022/08/23 04:01:26;;;;;;;5.45;2.72;;;14.80;71.40;;;;;;5036428;28;19908;-74
2022/08/23 04:03:52;;;;;;;4.65;2.60;;;14.80;71.20;;;;;;5036535;28;20489;-74
2022/08/23 04:06:17;;;;;;;3.78;2.60;;;14.80;70.90;;;;;;5036632;28;20022;-73
2022/08/23 04:08:44;;;;;;;9.20;2.75;;;14.80;70.70;;;;;;5036409;28;20037;-74
2022/08/23 04:11:12;;;;;;;4.65;2.75;;;14.80;70.50;;;;;;5036368;28;20024;-74
2022/08/23 04:13:39;;;;;;;4.32;2.63;;;14.80;70.70;;;;;;5036554;28;20028;-73
2022/08/23 04:16:05;;;;;;;4.68;2.60;;;14.70;71.10;;;;;;5036518;28;20490;-74
2022/08/23 04:18:32;;;;;;;4.43;2.50;;;14.70;71.20;;;;;;5036310;28;20033;-74
2022/08/23 04:21:01;;;;;;;4.65;2.60;;;14.70;71.30;;;;;;5036352;28;20251;-74
2022/08/23 04:23:27;;;;;;;6.20;2.85;;;14.70;71.50;;;;;;5036312;28;20025;-75
2022/08/23 04:25:56;;;;;;;3.78;2.92;;;14.60;71.70;;;;;;5036144;28;20033;-74
2022/08/23 04:28:22;;;;;;;5.38;2.70;;;14.50;71.60;;;;;;5036102;28;20473;-74
2022/08/23 04:30:49;;;;;;;6.50;3.00;;;14.60;71.50;;;;;;5035974;28;20025;-74
2022/08/23 04:33:15;;;;;;;7.78;2.92;;;14.50;71.60;;;;;;5036256;28;20041;-73
2022/08/23 04:35:40;;;;;;;3.97;2.72;;;14.50;71.60;;;;;;5036003;28;20466;-73
2022/08/23 04:38:06;;;;;;;9.57;2.45;;;14.50;71.20;;;;;;5035799;28;20029;-74
2022/08/23 04:43:16;;;;;;;5.93;2.30;;;14.50;71.30;;;;;;5035933;28;20488;-74
2022/08/23 04:45:42;;;;;;;4.75;2.80;;;14.50;71.30;;;;;;5035707;28;20033;-73
2022/08/23 04:48:08;;;;;;;5.47;2.58;;;14.50;71.20;;;;;;5035755;28;20095;-74
2022/08/23 04:50:35;;;;;;;6.38;2.90;;;14.40;71.80;;;;;;5035646;28;20017;-74
2022/08/23 04:53:01;;;;;;;5.30;3.00;;;14.30;72.10;;;;;;5035774;28;20450;-73
2022/08/23 04:55:27;;;;;;;7.85;2.60;;;14.30;72.30;;;;;;5035466;28;20100;-74
2022/08/23 04:57:53;;;;;;;8.13;3.03;;;14.30;72.30;;;;;;5035429;28;20083;-74
2022/08/23 05:00:18;;;;;;;6.93;3.05;;;14.30;72.00;;;;;;5035340;28;20156;-74
2022/08/23 05:02:45;;;;;;;4.57;2.88;;;14.40;71.80;;;;;;5035567;28;20113;-75
2022/08/23 05:05:11;;;;;;;5.28;2.47;;;14.40;71.80;;;;;;5035426;28;20025;-74
2022/08/23 05:07:38;;;;;;;7.93;3.25;;;14.30;71.80;;;;;;5035331;28;20485;-75
2022/08/23 05:10:07;;;;;;;4.35;2.63;;;14.40;71.50;;;;;;5035428;28;20022;-75
2022/08/23 05:12:33;;;;;;;6.72;3.40;;;14.40;71.60;;;;;;5035101;28;20424;-75
2022/08/23 05:14:58;;;;;;;3.75;2.90;;;14.40;71.30;;;;;;5033941;28;20030;-75
2022/08/23 05:17:24;;;;;;;6.95;3.10;;;14.50;71.20;;;;;;5035253;28;20147;-75
2022/08/23 05:19:50;;;;;;;5.35;2.80;;;14.60;70.80;;;;;;5041403;28;20043;-74
2022/08/23 05:22:16;;;;;;;9.43;2.92;;;14.70;70.50;;;;;;5036263;28;20021;-75
2022/08/23 05:24:41;;;;;;;5.85;3.10;;;14.80;69.60;;;;;;5036053;28;20029;-74
2022/08/23 05:27:08;;;;;;;7.90;2.85;;;14.80;69.30;;;;;;5035102;28;20425;-75
2022/08/23 05:29:34;;;;;;;4.60;2.20;;;14.90;69.00;;;;;;5035036;28;20108;-74
2022/08/23 05:32:00;;;;;;;4.90;2.42;;;14.90;68.10;;;;;;5033533;28;20451;-75
2022/08/23 05:34:25;;;;;;;4.40;2.53;;;15.00;68.00;;;;;;5034766;28;20033;-75
2022/08/23 05:36:51;;;;;;;5.18;2.13;;;15.20;68.10;;;;;;5034469;28;20033;-75
2022/08/23 05:39:17;;;;;;;9.10;3.15;;;15.30;68.10;;;;;;5034627;28;20116;-75
2022/08/23 05:41:43;;;;;;;5.80;2.85;;;15.30;68.00;;;;;;5034513;28;20484;-74
2022/08/23 05:44:10;;;;;;;4.82;2.58;;;15.40;67.40;;;;;;5034846;28;20508;-75
2022/08/23 05:46:36;;;;;;;4.82;2.63;;;15.40;67.10;;;;;;5034396;28;20021;-75
2022/08/23 05:49:03;;;;;;;4.90;2.60;;;15.50;67.10;;;;;;5034398;28;20466;-74
2022/08/23 05:51:31;;;;;;;8.05;2.85;;;15.60;66.60;;;;;;5034527;28;20087;-76
2022/08/23 05:54:00;;;;;;;7.88;3.30;;;15.70;66.40;;;;;;5034643;28;20075;-75
2022/08/23 05:56:28;;;;;;;13.20;3.00;;;15.80;67.00;;;;;;5034490;28;20020;-77
2022/08/23 05:58:57;;;;;;;7.53;2.75;;;16.00;68.90;;;;;;5034689;28;20115;-76
2022/08/23 06:01:23;;;;;;;9.75;2.38;;;16.20;67.00;;;;;;5034290;28;20037;-82
2022/08/23 06:03:49;;;;;;;6.95;2.80;;;16.50;65.80;;;;;;5034370;28;20041;-78
2022/08/23 06:06:16;;;;;;;9.23;2.55;;;16.60;65.10;;;;;;5033826;28;20013;-80
2022/08/23 06:08:46;;;;;;;7.95;3.60;;;16.80;63.50;;;;;;5034115;28;20401;-79
2022/08/23 06:11:17;;;;;;;22.98;3.40;;;16.70;64.00;;;;;;5034102;28;20017;-80
2022/08/23 06:13:47;;;;;;;5.30;2.42;;;16.90;63.50;;;;;;5034130;28;20112;-78
2022/08/23 06:16:14;;;;;;;7.38;2.15;;;16.90;63.10;;;;;;5034157;28;20053;-78
2022/08/23 06:18:39;;;;;;;3.80;2.40;;;16.90;62.90;;;;;;5034362;28;20541;-80
2022/08/23 06:21:08;;;;;;;6.57;2.00;;;16.90;63.00;;;;;;5034944;28;20064;-78
2022/08/23 06:23:35;;;;;;;6.28;2.40;;;17.00;62.20;;;;;;5034302;28;20049;-78
2022/08/23 06:26:08;;;;;;;4.00;2.10;;;17.10;62.20;;;;;;5033936;28;20026;-79
2022/08/23 06:28:34;;;;;;;5.53;2.10;;;17.30;61.70;;;;;;5033962;28;20531;-79
2022/08/23 06:30:59;;;;;;;6.45;3.00;;;17.40;61.60;;;;;;5032588;28;20033;-79
2022/08/23 06:33:26;;;;;;;8.95;3.20;;;17.50;62.70;;;;;;5033669;28;20496;-80
2022/08/23 06:36:04;;;;;;;28.90;4.00;;;17.50;62.70;;;;;;5033693;28;20028;-80
2022/08/23 06:38:30;;;;;;;18.67;4.10;;;17.80;62.00;;;;;;5033639;28;20116;-79
2022/08/23 06:41:01;;;;;;;21.60;4.20;;;18.00;61.30;;;;;;5033746;28;20133;-79
2022/08/23 06:43:28;;;;;;;29.95;4.50;;;18.20;60.00;;;;;;5032155;28;20026;-79
2022/08/23 06:45:54;;;;;;;10.98;3.20;;;18.20;59.30;;;;;;5033596;28;20033;-76
2022/08/23 06:48:19;;;;;;;11.57;3.40;;;18.40;59.30;;;;;;5033676;28;20038;-78
2022/08/23 06:50:45;;;;;;;12.13;3.58;;;18.60;58.80;;;;;;5033626;28;20017;-79
2022/08/23 06:53:11;;;;;;;8.10;2.63;;;18.70;57.20;;;;;;5033546;28;20041;-79
2022/08/23 06:55:37;;;;;;;7.32;2.42;;;18.80;56.00;;;;;;5033559;28;20048;-78
2022/08/23 06:58:03;;;;;;;5.68;2.80;;;18.90;56.10;;;;;;5033333;28;20029;-78
2022/08/23 07:00:29;;;;;;;7.50;3.28;;;18.90;55.00;;;;;;5033164;28;20061;-76
2022/08/23 07:02:54;;;;;;;7.65;2.42;;;19.10;55.00;;;;;;5033551;28;20547;-76
2022/08/23 07:05:20;;;;;;;4.47;2.25;;;19.20;54.20;;;;;;5033222;28;20021;-77
2022/08/23 07:07:46;;;;;;;7.20;2.35;;;19.40;54.50;;;;;;5033559;28;20018;-79
2022/08/23 07:10:12;;;;;;;4.53;2.30;;;19.50;53.60;;;;;;5033103;28;20377;-78
2022/08/23 07:12:41;;;;;;;5.25;2.22;;;19.60;53.20;;;;;;5033127;28;20319;-77
2022/08/23 07:15:07;;;;;;;4.82;2.40;;;19.70;52.80;;;;;;5032965;28;20057;-77
2022/08/23 07:17:33;;;;;;;4.35;2.40;;;19.80;51.90;;;;;;5032743;28;20060;-77
2022/08/23 07:19:58;;;;;;;8.65;3.45;;;20.00;51.90;;;;;;5032010;28;20117;-77
2022/08/23 07:22:24;;;;;;;4.90;1.90;;;20.10;51.70;;;;;;5033055;28;20104;-77
2022/08/23 07:24:49;;;;;;;4.28;2.25;;;20.20;51.10;;;;;;5031453;28;20392;-77
2022/08/23 07:27:15;;;;;;;3.75;1.98;;;20.40;51.00;;;;;;5032783;28;20017;-77
2022/08/23 07:29:41;;;;;;;4.80;2.10;;;20.50;51.00;;;;;;5032581;28;20022;-77
2022/08/23 07:32:07;;;;;;;4.47;2.25;;;20.60;50.50;;;;;;5032691;28;20022;-77
2022/08/23 07:34:33;;;;;;;3.40;2.20;;;20.70;50.30;;;;;;5032634;28;20380;-78
2022/08/23 07:37:00;;;;;;;3.42;1.90;;;20.90;50.60;;;;;;5031360;28;20033;-78
2022/08/23 07:39:25;;;;;;;2.85;1.80;;;21.00;50.20;;;;;;5032553;28;20035;-77
2022/08/23 07:41:51;;;;;;;3.75;1.88;;;21.10;50.00;;;;;;5032496;28;20370;-78
2022/08/23 07:44:17;;;;;;;4.43;1.90;;;21.40;49.70;;;;;;5032003;28;20482;-78
2022/08/23 07:46:43;;;;;;;4.72;1.80;;;21.50;49.00;;;;;;5032219;28;20025;-79
2022/08/23 07:49:11;;;;;;;3.40;1.83;;;21.60;48.60;;;;;;5032429;28;20040;-74
2022/08/23 07:51:38;;;;;;;2.97;1.92;;;21.80;48.30;;;;;;5032227;28;20549;-73
2022/08/23 07:54:06;;;;;;;10.40;2.28;;;21.90;48.20;;;;;;5031011;28;20367;-77
2022/08/23 07:56:33;;;;;;;8.20;4.53;;;21.90;47.50;;;;;;5032393;28;20022;-74
2022/08/23 07:59:00;;;;;;;4.55;2.42;;;21.90;47.40;;;;;;5032359;28;20044;-72
2022/08/23 08:01:27;;;;;;;3.35;2.28;;;22.00;47.70;;;;;;5032393;28;20125;-76
2022/08/23 08:03:55;;;;;;;6.72;2.40;;;22.10;47.40;;;;;;5032581;28;20452;-76
2022/08/23 08:06:33;;;;;;;5.15;2.22;;;22.10;46.90;;;;;;5032429;28;20022;-76
2022/08/23 08:08:59;;;;;;;6.35;2.22;;;22.00;47.40;;;;;;5032338;28;20266;-74
2022/08/23 08:11:27;;;;;;;4.63;2.20;;;22.10;47.00;;;;;;5032376;28;20018;-73
2022/08/23 08:13:53;;;;;;;2.83;1.90;;;22.30;47.10;;;;;;5032439;28;20097;-73
2022/08/23 08:16:29;;;;;;;9.15;2.00;;;22.30;46.90;;;;;;5032423;28;20048;-73
2022/08/23 08:18:59;;;;;;;6.10;2.40;;;22.50;47.80;;;;;;5030883;28;20528;-73
2022/08/23 08:21:26;;;;;;;3.97;2.05;;;22.60;46.70;;;;;;5032405;28;20036;-74
2022/08/23 08:23:53;;;;;;;5.40;1.90;;;22.70;46.90;;;;;;5031015;28;20438;-73
2022/08/23 08:26:19;;;;;;;5.53;2.05;;;22.80;46.30;;;;;;5032340;28;20100;-74
2022/08/23 08:28:45;;;;;;;4.97;1.85;;;22.90;46.40;;;;;;5032232;28;20014;-73
2022/08/23 08:31:11;;;;;;;3.55;1.73;;;23.00;45.80;;;;;;5033568;28;20434;-74
2022/08/23 08:33:38;;;;;;;4.80;1.83;;;23.10;45.80;;;;;;5034595;28;20377;-75
2022/08/23 08:36:05;;;;;;;5.93;1.98;;;23.20;45.40;;;;;;5035869;28;20028;-76
2022/08/23 08:38:31;;;;;;;3.30;1.80;;;23.20;43.60;;;;;;5034267;28;20041;-75
2022/08/23 08:41:15;;;;;;;5.50;1.88;;;23.30;43.60;;;;;;5035601;28;20067;-74
2022/08/23 08:43:48;;;;;;;5.78;1.60;;;23.40;43.80;;;;;;5035597;28;20030;-76
2022/08/23 08:46:27;;;;;;;4.43;1.60;;;23.50;42.00;;;;;;5035618;28;20355;-75
2022/08/23 08:48:56;;;;;;;2.95;1.55;;;23.50;40.30;;;;;;5035389;28;20130;-75
2022/08/23 08:51:31;;;;;;;5.25;1.42;;;23.50;39.00;;;;;;5035532;28;20022;-74
2022/08/23 08:53:57;;;;;;;3.17;1.38;;;23.60;39.50;;;;;;5035374;28;20026;-73
2022/08/23 08:56:30;;;;;;;3.67;1.80;;;23.70;40.10;;;;;;5035496;28;20378;-75
2022/08/23 08:59:01;;;;;;;2.90;1.40;;;23.80;40.20;;;;;;5035358;28;20060;-74
2022/08/23 09:01:28;;;;;;;5.45;1.98;;;23.90;40.10;;;;;;5035703;28;20033;-74
2022/08/23 09:03:55;;;;;;;6.80;1.90;;;24.00;40.50;;;;;;5035540;28;20060;-74
2022/08/23 09:06:34;;;;;;;2.83;1.63;;;24.10;38.00;;;;;;5035316;28;20079;-74
2022/08/23 09:09:00;;;;;;;3.47;1.45;;;24.30;37.50;;;;;;5034185;28;20036;-74
2022/08/23 09:11:44;;;;;;;2.72;1.20;;;24.40;37.00;;;;;;5033899;28;20112;-73
2022/08/23 09:14:37;;;;;;;1.83;1.27;;;24.50;36.30;;;;;;5035144;28;20072;-74
2022/08/23 09:17:19;;;;;;;6.18;1.30;;;24.60;35.90;;;;;;5027712;28;20057;-73
2022/08/23 09:19:46;;;;;;;2.20;1.33;;;24.80;35.50;;;;;;5035122;28;20048;-74
2022/08/23 09:22:19;;;;;;;2.50;1.15;;;24.90;33.70;;;;;;5033828;28;20025;-74
2022/08/23 09:24:45;;;;;;;2.83;1.33;;;25.00;33.20;;;;;;5035137;28;20116;-75
2022/08/23 09:27:10;;;;;;;2.00;1.30;;;25.10;32.80;;;;;;5034922;28;20435;-75
2022/08/23 09:29:39;;;;;;;3.05;1.27;;;25.30;33.40;;;;;;5035089;28;20022;-77
2022/08/23 09:32:23;;;;;;;3.25;1.17;;;25.30;31.70;;;;;;5034867;28;20025;-74
2022/08/23 09:34:49;;;;;;;2.43;1.30;;;25.20;31.60;;;;;;5034834;28;20112;-75
2022/08/23 09:37:23;;;;;;;3.08;1.50;;;25.20;31.30;;;;;;5034458;28;20355;-75
2022/08/23 09:40:10;;;;;;;3.42;1.38;;;25.20;28.90;;;;;;5034617;28;20052;-75
2022/08/23 09:42:38;;;;;;;4.43;1.50;;;25.40;30.50;;;;;;5033243;28;20083;-75
2022/08/23 09:45:06;;;;;;;9.25;1.67;;;25.50;28.30;;;;;;5034413;28;20112;-74
2022/08/23 09:47:35;;;;;;;4.22;1.50;;;25.40;28.90;;;;;;5034512;28;20021;-74
2022/08/23 09:50:15;;;;;;;4.07;1.20;;;25.50;28.70;;;;;;5034448;28;20377;-74
2022/08/23 09:52:41;;;;;;;3.33;1.65;;;25.60;28.70;;;;;;5034761;28;20083;-75
2022/08/23 09:55:34;;;;;;;7.18;1.38;;;25.60;27.80;;;;;;5039945;28;20028;-74
2022/08/23 09:58:05;;;;;;;5.63;1.20;;;25.70;28.10;;;;;;5034867;28;20029;-75
2022/08/23 10:00:34;;;;;;;2.92;1.17;;;25.80;28.00;;;;;;5033045;28;20050;-76
2022/08/23 10:03:27;;;;;;;3.58;1.35;;;25.90;28.30;;;;;;5032759;28;20135;-75
2022/08/23 10:05:56;;;;;;;2.20;1.25;;;26.10;30.20;;;;;;5034125;28;20025;-82
2022/08/23 10:08:27;;;;;;;4.82;1.25;;;26.30;30.50;;;;;;5035027;28;20029;-77
2022/08/23 10:11:02;;;;;;;1.63;1.27;;;26.60;30.10;;;;;;5036014;28;20018;-77
2022/08/23 10:13:28;;;;;;;3.80;1.67;;;26.60;26.70;;;;;;5036555;28;20500;-81
2022/08/23 10:16:16;;;;;;;2.50;1.30;;;26.40;27.10;;;;;;5035682;28;20029;-85
2022/08/23 10:18:53;;;;;;;2.40;1.13;;;26.30;27.40;;;;;;5036307;28;20041;-87
2022/08/23 10:21:30;;;;;;;2.08;1.42;;;26.30;28.10;;;;;;5033884;28;20382;-81
2022/08/23 10:24:19;;;;;;;3.28;1.50;;;26.50;29.40;;;;;;5033542;28;20032;-83
2022/08/23 10:30:17;;;;;;;5.70;1.80;;;26.90;28.40;;;;;;5035037;28;20083;-80
2022/08/23 10:33:03;;;;;;;4.15;1.67;;;26.80;26.80;;;;;;5033752;28;20501;-77
2022/08/23 10:35:42;;;;;;;;;;;26.90;27.70;;;;;;5034342;28;20036;-77
2022/08/23 10:38:20;;;;;;;2.42;1.30;;;27.00;28.10;;;;;;5033782;28;20369;-78
2022/08/23 10:41:05;;;;;;;7.25;1.58;;;27.00;28.60;;;;;;5033582;28;20029;-78
2022/08/23 10:43:57;;;;;;;1.70;1.33;;;27.30;28.40;;;;;;5033046;28;20017;-77
2022/08/23 10:46:23;;;;;;;2.80;1.70;;;27.50;28.60;;;;;;5033897;28;20033;-77
2022/08/23 10:48:53;;;;;;;2.33;1.48;;;27.50;26.50;;;;;;5032404;28;20076;-77
2022/08/23 10:51:29;;;;;;;3.55;1.60;;;27.50;26.00;;;;;;5033689;28;20095;-77
2022/08/23 10:54:15;;;;;;;;;;;27.40;26.30;;;;;;5032439;28;20032;-77
2022/08/23 10:56:41;;;;;;;3.80;1.27;;;27.50;26.10;;;;;;5031490;28;19912;-77
2022/08/23 10:59:16;;;;;;;2.30;1.30;;;27.60;26.30;;;;;;5033299;28;20107;-78
2022/08/23 11:01:49;;;;;;;3.27;1.57;;;27.70;25.00;;;;;;5033291;28;20021;-78
2022/08/23 11:04:42;;;;;;;4.38;1.40;;;27.50;25.50;;;;;;5033459;28;20264;-77
2022/08/23 11:07:20;;;;;;;4.03;1.60;;;27.50;25.60;;;;;;5033022;28;20021;-77
2022/08/23 11:10:04;;;;;;;6.05;1.30;;;27.60;25.80;;;;;;5032680;28;20030;-77
2022/08/23 11:12:34;;;;;;;2.65;1.30;;;27.90;27.60;;;;;;5032992;28;20025;-77
2022/08/23 11:15:26;;;;;;;2.88;1.20;;;28.10;27.40;;;;;;5033291;28;20381;-78
2022/08/23 11:17:58;;;;;;;2.55;1.40;;;28.40;26.30;;;;;;5033048;28;20032;-78
2022/08/23 11:20:49;;;;;;;5.25;1.40;;;28.60;25.50;;;;;;5033033;28;20083;-77
2022/08/23 11:23:16;;;;;;;5.03;1.45;;;28.70;24.20;;;;;;5032844;28;20088;-79
2022/08/23 11:25:44;;;;;;;4.22;1.50;;;28.70;24.10;;;;;;5031515;28;20427;-77
2022/08/23 11:28:22;;;;;;;4.15;1.50;;;28.70;24.40;;;;;;5031636;28;20026;-78
2022/08/23 11:31:11;;;;;;;3.30;1.33;;;28.80;24.70;;;;;;5032792;28;20018;-78
2022/08/23 11:34:02;;;;;;;3.65;1.90;;;28.80;25.50;;;;;;5032883;28;20474;-78
2022/08/23 11:36:29;;;;;;;3.50;1.40;;;28.80;25.20;;;;;;5031742;28;20034;-77
2022/08/23 11:38:55;;;;;;;3.22;1.60;;;28.70;24.20;;;;;;5032435;28;20465;-78
2022/08/23 11:41:24;;;;;;;1.92;1.40;;;28.70;24.50;;;;;;5031310;28;20120;-79
2022/08/23 11:43:55;;;;;;;2.83;1.50;;;28.70;24.70;;;;;;5032602;28;20026;-78
2022/08/23 11:46:27;;;;;;;3.60;1.30;;;28.80;26.00;;;;;;5032714;28;20502;-81
2022/08/23 11:48:58;;;;;;;4.45;1.90;;;29.00;26.10;;;;;;5031594;28;20037;-79
2022/08/23 11:51:28;;;;;;;4.30;1.55;;;28.70;24.30;;;;;;5031485;28;20508;-79
2022/08/23 11:54:13;;;;;;;3.00;1.42;;;28.20;25.50;;;;;;5030239;28;20084;-81
2022/08/23 11:56:54;;;;;;;3.53;1.48;;;28.10;26.70;;;;;;5031398;28;20017;-77
2022/08/23 11:59:51;;;;;;;2.72;1.60;;;28.10;26.30;;;;;;5032623;28;20045;-80
2022/08/23 12:02:37;;;;;;;2.92;1.42;;;28.20;25.90;;;;;;5032540;28;20079;-80
2022/08/23 12:05:21;;;;;;;3.95;1.50;;;28.40;26.70;;;;;;5033842;28;20026;-81
2022/08/23 12:08:15;;;;;;;1.95;1.25;;;28.50;24.90;;;;;;5036632;28;20397;-82
2022/08/23 12:10:41;;;;;;;2.55;1.20;;;28.80;25.30;;;;;;5035406;28;20105;-78
2022/08/23 12:13:21;;;;;;;3.55;1.30;;;28.70;24.60;;;;;;5036323;28;20489;-81
2022/08/23 12:16:12;;;;;;;3.22;1.40;;;28.40;26.00;;;;;;5036833;28;20079;-83
2022/08/23 12:18:52;;;;;;;4.63;1.65;;;28.20;26.00;;;;;;5035316;28;20029;-83
2022/08/23 12:21:23;;;;;;;2.55;1.50;;;28.00;26.40;;;;;;5036263;28;20021;-80
2022/08/23 12:23:57;;;;;;;4.63;1.73;;;27.90;25.60;;;;;;5036449;28;20466;-83
2022/08/23 12:26:38;;;;;;;3.95;1.35;;;27.80;27.70;;;;;;5036516;28;20028;-79
2022/08/23 12:29:35;;;;;;;2.85;1.25;;;28.00;26.60;;;;;;5036184;28;20058;-80
2022/08/23 12:32:30;;;;;;;3.08;1.65;;;28.40;26.60;;;;;;5011283;28;20415;-83
2022/08/23 12:35:33;;;;;;;2.97;1.35;;;28.60;25.60;;;;;;5034761;28;20053;-82
2022/08/23 12:38:01;;;;;;;2.92;1.60;;;28.60;24.60;;;;;;5035898;28;20029;-80
2022/08/23 12:40:33;;;;;;;3.45;1.42;;;28.50;24.50;;;;;;5036553;28;20029;-81
2022/08/23 12:43:22;;;;;;;2.53;1.10;;;28.70;24.80;;;;;;5034799;28;20482;-80
2022/08/23 12:45:53;;;;;;;6.40;1.50;;;29.00;26.60;;;;;;5036473;28;20144;-82
2022/08/23 12:48:22;;;;;;;3.13;1.45;;;29.30;23.70;;;;;;5034423;28;20116;-79
2022/08/23 12:50:59;;;;;;;2.72;1.17;;;29.40;23.80;;;;;;5036374;28;20025;-86
2022/08/23 12:53:31;;;;;;;4.50;1.30;;;29.70;23.00;;;;;;5036965;28;20029;-81
2022/08/23 12:56:17;;;;;;;4.15;1.40;;;30.10;22.80;;;;;;5035840;28;20482;-82
2022/08/23 12:58:48;;;;;;;5.57;1.52;;;30.20;22.60;;;;;;5035188;28;20159;-79
2022/08/23 13:01:22;;;;;;;2.03;1.40;;;30.20;22.70;;;;;;5034222;28;20394;-80
2022/08/23 13:03:52;;;;;;;1.95;1.40;;;30.10;22.60;;;;;;5035553;28;20057;-81
2022/08/23 13:06:23;;;;;;;6.75;1.52;;;30.20;23.90;;;;;;5035385;28;20025;-79
2022/08/23 13:09:23;;;;;;;2.50;1.20;;;30.40;22.90;;;;;;5035564;28;20037;-80
2022/08/23 13:11:49;;;;;;;8.23;1.52;;;30.30;22.00;;;;;;5035426;28;20551;-80
2022/08/23 13:14:36;;;;;;;5.28;1.73;;;30.00;23.20;;;;;;5035261;28;20079;-80
2022/08/23 13:17:38;;;;;;;1.98;1.23;;;30.00;23.20;;;;;;5035127;28;20022;-81
2022/08/23 13:20:17;;;;;;;3.10;1.38;;;30.20;22.70;;;;;;5025372;28;20037;-81
2022/08/23 13:23:05;;;;;;;2.47;1.38;;;30.50;21.60;;;;;;5035274;28;20501;-81